world map with KZO marked

KZO - Airport

This information may not be accurate or current and is not valid for navigation or flight planning. No warranty of fitness for any purpose is made or implied.

flag of Kazakhstan

Donate via PayPal

Additional information is available on the NEW Great Circle Mapper

Location
City:  Kyzylorda, Qyzylorda, Kazakhstan
Near (Alt.):Kzyl-Orda
Name:Kyzylorda Airport
ICAO / IATA:UAOO / KZO

Details
Type:Airport (Aerodrome, Airfield)
Use:Public/Civil
Latitude:44°42'22"N (44.706111)
Longitude:65°35'30"E (65.591667)
Elevation:430 ft (131 m)
Runways:1
Longest:8858 × 148 ft (2700 × 45 m)

Weather
METAR:UAOO  041400Z 33003MPS 9999 OVC008 M02/M03 Q1025 R05/CLRD70 NOSIG RMK QFE757/1010
TAF:UAOO  (expired)

Related Locations
Nearby:
Farthest:NEMO: 11923 mi / 19188 km
Pacific Ocean [Oceanic Pole of Inaccessibility (Point Nemo)]

Find:

   beyond  
but within

Other Information
Maps:
Links:
Sources:

  


 


Great Circle Mapper   Great Circle Mapper
Great Circle Mapper FAQ   Great Circle Mapper FAQ
  Karl's Home Page
KLSē   KLSē Home
   GC on Facebook
Airlines of the World   Airlines of the World
Donate via PayPal


Copyright © 2004-2020, Karl L. Swartz. All rights reserved.
All trademarks mentioned herein belong to their respective owners.

Please see credits for attribution and copyright information.

Karl Swartz <karl@kls2.com>
  Powered by FreeBSD
Valid HTML 4.01!
Labeled with ICRA
hCard Microformat
Geo Microformat